Time;durP1;ratioP1;P1;durP2;ratioP2;P2;SDS_P1;SDS_P2;PMS_P1;PMS_P2;Temp;Humidity;BMP_temperature;BMP_pressure;BME280_temperature;BME280_humidity;BME280_pressure;Samples;Min_cycle;Max_cycle;Signal;HPM_P1;HPM_P2
2021/08/07 00:00:01;;;;;;;2.67;1.20;;;;;;;;;;5035422;28;20181;-84
2021/08/07 00:02:27;;;;;;;2.67;1.23;;;;;;;;;;5032280;28;20439;-84
2021/08/07 00:04:53;;;;;;;3.63;1.27;;;;;;;;;;5045718;28;20706;-84
2021/08/07 00:07:19;;;;;;;2.57;1.40;;;;;;;;;;5032974;28;20189;-84
2021/08/07 00:09:45;;;;;;;5.53;1.47;;;;;;;;;;5027757;28;20429;-83
2021/08/07 00:12:11;;;;;;;2.87;1.70;;;;;;;;;;5039749;28;20460;-84
2021/08/07 00:14:37;;;;;;;1.90;1.20;;;;;;;;;;5041247;28;20517;-84
2021/08/07 00:17:03;;;;;;;2.80;1.10;;;;;;;;;;5044378;28;20292;-84
2021/08/07 00:19:30;;;;;;;3.60;1.30;;;;;;;;;;5031097;28;20257;-84
2021/08/07 00:21:56;;;;;;;2.25;1.10;;;;;;;;;;5032396;28;20239;-84
2021/08/07 00:24:22;;;;;;;3.05;1.42;;;;;;;;;;5037604;28;20201;-84
2021/08/07 00:26:48;;;;;;;3.90;1.50;;;;;;;;;;5045829;28;20219;-84
2021/08/07 00:29:14;;;;;;;2.25;1.25;;;;;;;;;;5047232;28;20482;-84
2021/08/07 00:31:40;;;;;;;1.90;1.20;;;;;;;;;;5045347;28;20558;-84
2021/08/07 00:34:06;;;;;;;2.17;1.20;;;;;;;;;;5046354;28;20464;-84
2021/08/07 00:36:32;;;;;;;3.72;1.30;;;;;;;;;;5040319;28;20440;-84
2021/08/07 00:38:58;;;;;;;1.90;1.10;;;;;;;;;;5045895;28;20189;-84
2021/08/07 00:41:24;;;;;;;1.60;0.90;;;;;;;;;;5045091;28;20567;-84
2021/08/07 00:43:50;;;;;;;1.75;1.00;;;;;;;;;;5027789;28;20425;-83
2021/08/07 00:46:16;;;;;;;1.40;1.17;;;;;;;;;;5032699;28;20170;-84
2021/08/07 00:48:42;;;;;;;3.58;1.33;;;;;;;;;;5039141;28;20182;-84
2021/08/07 00:51:08;;;;;;;4.37;1.40;;;;;;;;;;5041177;28;20217;-83
2021/08/07 00:53:34;;;;;;;2.43;1.50;;;;;;;;;;5032870;28;20452;-84
2021/08/07 00:56:00;;;;;;;2.13;1.33;;;;;;;;;;5042672;28;20431;-84
2021/08/07 00:58:26;;;;;;;2.38;1.30;;;;;;;;;;5030263;28;20618;-83
2021/08/07 01:00:52;;;;;;;2.70;1.20;;;;;;;;;;5044215;28;20212;-84
2021/08/07 01:03:18;;;;;;;2.27;1.50;;;;;;;;;;5043473;28;20463;-84
2021/08/07 01:05:48;;;;;;;3.70;1.30;;;;;;;;;;5044070;28;20436;-83
2021/08/07 01:08:19;;;;;;;7.85;1.45;;;;;;;;;;5031361;28;20504;-84
2021/08/07 01:11:05;;;;;;;1.30;1.20;;;;;;;;;;5043684;28;20178;-83
2021/08/07 01:13:34;;;;;;;2.05;1.20;;;;;;;;;;5021138;28;20201;-84
2021/08/07 01:16:03;;;;;;;1.75;0.98;;;;;;;;;;5011310;28;20234;-84
2021/08/07 01:18:29;;;;;;;3.05;1.33;;;;;;;;;;5016790;28;20218;-83
2021/08/07 01:20:57;;;;;;;3.53;1.50;;;;;;;;;;5023619;28;20201;-84
2021/08/07 01:23:23;;;;;;;2.70;1.10;;;;;;;;;;5007090;28;20363;-84
2021/08/07 01:26:11;;;;;;;2.30;1.20;;;;;;;;;;5004360;28;20185;-84
2021/08/07 01:28:39;;;;;;;3.30;1.20;;;;;;;;;;5017075;28;20549;-84
2021/08/07 01:31:06;;;;;;;3.85;1.52;;;;;;;;;;4996740;28;20401;-84
2021/08/07 01:33:32;;;;;;;2.80;1.55;;;;;;;;;;5016937;28;20257;-84
2021/08/07 01:35:59;;;;;;;2.10;1.27;;;;;;;;;;5004011;28;20213;-84
2021/08/07 01:38:25;;;;;;;4.32;1.55;;;;;;;;;;4992049;28;20190;-83
2021/08/07 01:40:51;;;;;;;5.38;1.75;;;;;;;;;;5005451;28;20212;-84
2021/08/07 01:43:17;;;;;;;2.00;1.20;;;;;;;;;;5008104;28;20204;-84
2021/08/07 01:45:45;;;;;;;1.27;1.10;;;;;;;;;;5023349;28;20712;-84
2021/08/07 01:48:32;;;;;;;2.60;1.10;;;;;;;;;;5001489;28;20480;-83
2021/08/07 01:51:00;;;;;;;1.83;1.00;;;;;;;;;;4974472;28;20227;-84
2021/08/07 01:53:28;;;;;;;2.22;1.42;;;;;;;;;;4983370;28;20206;-85
2021/08/07 01:56:10;;;;;;;8.13;3.78;;;;;;;;;;4950707;28;20275;-84
2021/08/07 01:58:49;;;;;;;2.25;1.10;;;;;;;;;;4981732;28;20184;-84
2021/08/07 02:01:16;;;;;;;1.80;1.20;;;;;;;;;;4983422;28;20194;-84
2021/08/07 02:03:42;;;;;;;2.85;1.27;;;;;;;;;;4959321;28;20226;-84
2021/08/07 02:06:08;;;;;;;1.35;1.23;;;;;;;;;;4962991;28;20187;-84
2021/08/07 02:08:36;;;;;;;1.85;1.10;;;;;;;;;;4987737;28;20207;-84
2021/08/07 02:11:02;;;;;;;2.80;1.05;;;;;;;;;;4987584;28;20203;-84
2021/08/07 02:13:28;;;;;;;2.15;1.38;;;;;;;;;;4967487;28;20203;-84
2021/08/07 02:15:55;;;;;;;3.17;1.42;;;;;;;;;;4984502;28;20199;-84
2021/08/07 02:18:22;;;;;;;5.13;1.30;;;;;;;;;;4959743;28;20228;-84
2021/08/07 02:20:49;;;;;;;1.60;1.20;;;;;;;;;;4959467;28;20198;-84
2021/08/07 02:23:16;;;;;;;2.97;1.00;;;;;;;;;;4987884;28;20351;-84
2021/08/07 02:25:43;;;;;;;3.42;1.40;;;;;;;;;;4985453;28;20344;-84
2021/08/07 02:28:10;;;;;;;2.05;1.50;;;;;;;;;;5009800;28;20196;-84
2021/08/07 02:30:36;;;;;;;1.90;1.23;;;;;;;;;;5037990;28;20468;-84
2021/08/07 02:33:02;;;;;;;5.20;1.30;;;;;;;;;;5046918;28;20215;-84
2021/08/07 02:35:28;;;;;;;5.20;1.20;;;;;;;;;;5047315;28;20219;-84
2021/08/07 02:37:54;;;;;;;3.40;1.08;;;;;;;;;;5045320;28;20183;-85
2021/08/07 02:40:21;;;;;;;1.55;1.20;;;;;;;;;;5034828;28;20241;-84
2021/08/07 02:42:47;;;;;;;6.55;1.13;;;;;;;;;;5035874;28;20216;-84
2021/08/07 02:45:13;;;;;;;4.00;1.10;;;;;;;;;;5038213;28;20461;-84
2021/08/07 02:47:39;;;;;;;3.90;1.15;;;;;;;;;;5041501;28;20269;-84
2021/08/07 02:50:06;;;;;;;3.63;1.08;;;;;;;;;;5045360;28;20216;-84
2021/08/07 02:52:33;;;;;;;2.10;1.08;;;;;;;;;;5035878;28;20202;-84
2021/08/07 02:54:59;;;;;;;1.55;0.90;;;;;;;;;;5048620;28;20186;-84
2021/08/07 02:57:26;;;;;;;1.52;1.00;;;;;;;;;;5048348;28;20673;-84
2021/08/07 02:59:52;;;;;;;1.80;1.10;;;;;;;;;;5044823;28;20692;-84
2021/08/07 03:02:18;;;;;;;1.55;1.02;;;;;;;;;;5045959;28;20200;-85
2021/08/07 03:04:44;;;;;;;2.55;1.30;;;;;;;;;;5045010;28;20178;-85
2021/08/07 03:07:10;;;;;;;3.13;1.40;;;;;;;;;;5048513;28;20178;-84
2021/08/07 03:09:36;;;;;;;4.13;1.10;;;;;;;;;;5046411;28;20435;-84
2021/08/07 03:12:02;;;;;;;1.77;1.20;;;;;;;;;;5046911;28;20471;-84
2021/08/07 03:14:28;;;;;;;1.65;1.05;;;;;;;;;;5046262;28;20438;-83
2021/08/07 03:16:54;;;;;;;3.13;1.40;;;;;;;;;;5028693;28;20248;-84
2021/08/07 03:19:20;;;;;;;4.80;1.20;;;;;;;;;;5040455;28;20459;-84
2021/08/07 03:21:46;;;;;;;3.03;1.20;;;;;;;;;;5046500;28;20437;-84
2021/08/07 03:24:12;;;;;;;4.93;1.08;;;;;;;;;;5046381;28;20551;-84
2021/08/07 03:26:38;;;;;;;1.48;1.20;;;;;;;;;;5046930;28;20208;-84
2021/08/07 03:29:05;;;;;;;3.28;1.23;;;;;;;;;;5030598;28;20196;-84
2021/08/07 03:31:31;;;;;;;2.08;0.95;;;;;;;;;;5031546;28;20193;-84
2021/08/07 03:33:57;;;;;;;1.45;1.10;;;;;;;;;;5034696;28;20187;-84
2021/08/07 03:36:23;;;;;;;1.30;1.20;;;;;;;;;;5040080;28;20371;-83
2021/08/07 03:38:49;;;;;;;5.03;2.55;;;;;;;;;;5045883;28;20496;-84
2021/08/07 03:41:15;;;;;;;2.05;1.30;;;;;;;;;;5029301;28;20192;-84
2021/08/07 03:43:41;;;;;;;2.67;1.00;;;;;;;;;;5027878;28;20274;-84
2021/08/07 03:46:07;;;;;;;8.00;1.50;;;;;;;;;;5041631;28;20276;-84
2021/08/07 03:48:33;;;;;;;2.55;1.10;;;;;;;;;;5045880;28;20188;-84
2021/08/07 03:50:59;;;;;;;1.45;1.35;;;;;;;;;;5046416;28;20181;-84
2021/08/07 03:53:25;;;;;;;1.80;1.10;;;;;;;;;;5048173;28;20224;-84
2021/08/07 03:55:51;;;;;;;6.30;1.77;;;;;;;;;;5045521;28;20184;-84
2021/08/07 03:58:17;;;;;;;3.97;1.30;;;;;;;;;;5033459;28;20495;-84
2021/08/07 04:00:43;;;;;;;1.92;1.27;;;;;;;;;;5037211;28;20446;-83
2021/08/07 04:03:09;;;;;;;6.13;1.20;;;;;;;;;;5041331;28;20190;-84
2021/08/07 04:05:35;;;;;;;3.23;1.20;;;;;;;;;;5033456;28;20189;-84
2021/08/07 04:08:08;;;;;;;8.32;1.38;;;;;;;;;;5046034;28;20419;-84
2021/08/07 04:10:34;;;;;;;2.28;1.10;;;;;;;;;;5029199;28;20201;-84
2021/08/07 04:13:00;;;;;;;1.52;1.23;;;;;;;;;;5035188;28;20210;-84
2021/08/07 04:15:26;;;;;;;2.30;1.20;;;;;;;;;;5033108;28;20229;-84
2021/08/07 04:17:53;;;;;;;2.03;1.35;;;;;;;;;;5035931;28;20214;-84
2021/08/07 04:20:19;;;;;;;2.13;0.98;;;;;;;;;;5046550;28;20180;-84
2021/08/07 04:22:45;;;;;;;1.95;1.23;;;;;;;;;;5042615;28;20210;-84
2021/08/07 04:25:12;;;;;;;2.07;1.23;;;;;;;;;;5041921;28;20186;-84
2021/08/07 04:27:38;;;;;;;1.75;1.15;;;;;;;;;;5037778;28;20444;-84
2021/08/07 04:30:05;;;;;;;2.72;1.05;;;;;;;;;;5034437;28;20461;-84
2021/08/07 04:32:31;;;;;;;2.72;1.55;;;;;;;;;;5044386;28;20241;-84
2021/08/07 04:34:57;;;;;;;3.95;1.38;;;;;;;;;;5028053;28;20181;-84
2021/08/07 04:37:23;;;;;;;3.07;1.23;;;;;;;;;;5042493;28;20173;-83
2021/08/07 04:39:49;;;;;;;2.15;1.20;;;;;;;;;;5046318;28;20448;-84
2021/08/07 04:42:15;;;;;;;2.33;1.10;;;;;;;;;;5040320;28;20201;-84
2021/08/07 04:44:41;;;;;;;5.65;1.35;;;;;;;;;;5034528;28;20398;-84
2021/08/07 04:47:07;;;;;;;2.75;1.27;;;;;;;;;;5045604;28;20189;-84
2021/08/07 04:49:34;;;;;;;3.22;1.23;;;;;;;;;;5030215;28;20182;-84
2021/08/07 04:52:00;;;;;;;5.85;1.55;;;;;;;;;;5043763;28;20276;-84
2021/08/07 04:54:26;;;;;;;2.50;1.45;;;;;;;;;;5038372;28;20178;-84
2021/08/07 04:56:52;;;;;;;5.07;1.25;;;;;;;;;;5034905;28;20256;-84
2021/08/07 04:59:19;;;;;;;1.30;0.90;;;;;;;;;;5027565;28;21186;-84
2021/08/07 05:01:45;;;;;;;2.58;1.45;;;;;;;;;;5027592;28;20440;-84
2021/08/07 05:04:12;;;;;;;2.65;1.15;;;;;;;;;;5059892;28;20343;-84
2021/08/07 05:06:38;;;;;;;3.00;1.45;;;;;;;;;;5037467;28;20177;-84
2021/08/07 05:09:04;;;;;;;3.10;1.55;;;;;;;;;;5033095;28;20219;-84
2021/08/07 05:11:30;;;;;;;3.28;1.23;;;;;;;;;;5031457;28;20208;-84
2021/08/07 05:13:56;;;;;;;2.50;1.80;;;;;;;;;;5026421;28;20212;-84
2021/08/07 05:16:22;;;;;;;6.00;2.73;;;;;;;;;;5033058;28;20169;-84
2021/08/07 05:18:48;;;;;;;2.87;1.60;;;;;;;;;;5033848;28;20456;-84
2021/08/07 05:21:14;;;;;;;1.70;1.20;;;;;;;;;;5037329;28;20425;-84
2021/08/07 05:23:40;;;;;;;2.75;1.20;;;;;;;;;;5046225;28;20182;-84
2021/08/07 05:26:06;;;;;;;2.60;1.20;;;;;;;;;;5043754;28;20192;-84
2021/08/07 05:28:32;;;;;;;4.07;1.33;;;;;;;;;;5043971;28;20768;-83
2021/08/07 05:30:58;;;;;;;3.28;1.40;;;;;;;;;;5039195;28;20186;-84
2021/08/07 05:33:24;;;;;;;3.63;1.50;;;;;;;;;;5039905;28;20240;-84
2021/08/07 05:35:50;;;;;;;5.10;0.97;;;;;;;;;;5033086;28;20435;-84
2021/08/07 05:38:17;;;;;;;2.75;1.50;;;;;;;;;;5027521;28;20439;-84
2021/08/07 05:40:43;;;;;;;3.47;1.40;;;;;;;;;;5047917;28;20197;-84
2021/08/07 05:43:09;;;;;;;5.45;1.60;;;;;;;;;;5051769;28;20248;-84
2021/08/07 05:45:35;;;;;;;3.50;1.43;;;;;;;;;;5042524;28;20182;-84
2021/08/07 05:48:01;;;;;;;1.80;1.25;;;;;;;;;;5039269;28;20504;-84
2021/08/07 05:50:27;;;;;;;4.63;1.43;;;;;;;;;;5051512;28;20184;-84
2021/08/07 05:52:53;;;;;;;5.47;1.95;;;;;;;;;;5034061;28;20453;-83
2021/08/07 05:55:20;;;;;;;9.70;1.93;;;;;;;;;;5039369;28;20180;-84
2021/08/07 05:57:46;;;;;;;3.92;1.60;;;;;;;;;;5039693;28;20421;-84
2021/08/07 06:00:12;;;;;;;4.40;2.10;;;;;;;;;;5043333;28;20231;-84
2021/08/07 06:02:38;;;;;;;2.90;1.85;;;;;;;;;;5050543;28;20442;-84
2021/08/07 06:05:04;;;;;;;2.03;1.57;;;;;;;;;;5035662;28;20265;-84
2021/08/07 06:07:30;;;;;;;7.03;1.60;;;;;;;;;;5050057;28;20454;-84
2021/08/07 06:09:56;;;;;;;4.70;1.50;;;;;;;;;;5048462;28;20186;-84
2021/08/07 06:12:22;;;;;;;4.53;1.50;;;;;;;;;;5051414;28;20518;-82
2021/08/07 06:14:48;;;;;;;2.70;1.30;;;;;;;;;;5048287;28;20703;-84
2021/08/07 06:17:14;;;;;;;6.28;1.70;;;;;;;;;;5052794;28;20955;-84
2021/08/07 06:19:40;;;;;;;8.83;1.57;;;;;;;;;;5049837;28;20241;-83
2021/08/07 06:22:06;;;;;;;6.43;2.47;;;;;;;;;;5050272;28;20499;-85
2021/08/07 06:24:32;;;;;;;3.28;1.50;;;;;;;;;;5052333;28;20527;-83
2021/08/07 06:27:00;;;;;;;4.50;1.25;;;;;;;;;;5048713;28;20248;-84
2021/08/07 06:29:26;;;;;;;5.38;1.85;;;;;;;;;;5035659;28;20220;-84
2021/08/07 06:31:52;;;;;;;6.35;1.80;;;;;;;;;;5033200;28;20236;-84
2021/08/07 06:34:18;;;;;;;3.40;1.63;;;;;;;;;;5039474;28;20355;-84
2021/08/07 06:36:44;;;;;;;3.95;1.30;;;;;;;;;;5040351;28;20468;-83
2021/08/07 06:39:10;;;;;;;2.70;1.57;;;;;;;;;;5038088;28;20596;-83
2021/08/07 06:41:36;;;;;;;5.32;1.50;;;;;;;;;;5038992;28;20455;-83
2021/08/07 06:44:02;;;;;;;2.65;1.20;;;;;;;;;;5032618;28;20186;-84
2021/08/07 06:46:28;;;;;;;3.30;1.37;;;;;;;;;;5036441;28;20189;-84
2021/08/07 06:48:55;;;;;;;3.23;1.33;;;;;;;;;;5047603;28;20432;-84
2021/08/07 06:51:21;;;;;;;5.13;1.63;;;;;;;;;;5048123;28;20831;-84
2021/08/07 06:53:47;;;;;;;2.40;1.45;;;;;;;;;;5047502;28;20174;-84
2021/08/07 06:56:13;;;;;;;5.05;1.73;;;;;;;;;;5047372;28;20604;-84
2021/08/07 06:58:39;;;;;;;3.35;1.58;;;;;;;;;;5041896;28;20191;-84
2021/08/07 07:01:05;;;;;;;4.47;1.87;;;;;;;;;;5035849;28;20570;-84
2021/08/07 07:03:31;;;;;;;1.97;1.30;;;;;;;;;;5037216;28;20507;-83
2021/08/07 07:05:57;;;;;;;3.10;1.83;;;;;;;;;;5045705;28;20436;-83
2021/08/07 07:08:23;;;;;;;3.00;2.07;;;;;;;;;;5045637;28;20177;-84
2021/08/07 07:10:49;;;;;;;4.03;1.40;;;;;;;;;;5030220;28;20448;-84
2021/08/07 07:13:15;;;;;;;3.63;1.38;;;;;;;;;;5046838;28;20204;-83
2021/08/07 07:15:41;;;;;;;3.55;1.60;;;;;;;;;;5045376;28;20584;-84
2021/08/07 07:18:07;;;;;;;5.78;1.75;;;;;;;;;;5045990;28;20214;-84
2021/08/07 07:20:33;;;;;;;2.20;1.40;;;;;;;;;;5045536;28;20182;-84
2021/08/07 07:22:59;;;;;;;4.03;1.60;;;;;;;;;;5045591;28;20242;-84
2021/08/07 07:25:25;;;;;;;5.03;1.73;;;;;;;;;;5033044;28;20186;-83
2021/08/07 07:27:51;;;;;;;1.93;1.70;;;;;;;;;;5039864;28;20428;-84
2021/08/07 07:30:17;;;;;;;4.03;1.50;;;;;;;;;;5044870;28;20448;-82
2021/08/07 07:32:44;;;;;;;4.15;1.60;;;;;;;;;;5045758;28;20460;-84
2021/08/07 07:35:11;;;;;;;2.80;1.38;;;;;;;;;;5030774;28;20637;-84
2021/08/07 07:37:37;;;;;;;2.90;1.65;;;;;;;;;;5045371;28;20220;-83
2021/08/07 07:40:03;;;;;;;2.38;1.27;;;;;;;;;;5032393;28;20191;-83
2021/08/07 07:42:30;;;;;;;5.10;1.60;;;;;;;;;;5040581;28;20206;-83
2021/08/07 07:44:56;;;;;;;3.15;1.40;;;;;;;;;;5041438;28;20187;-85
2021/08/07 07:47:22;;;;;;;1.50;1.40;;;;;;;;;;5046199;28;20188;-83
2021/08/07 07:49:48;;;;;;;5.53;1.63;;;;;;;;;;5028042;28;20206;-83
2021/08/07 07:52:13;;;;;;;2.00;1.87;;;;;;;;;;5039854;28;20488;-84
2021/08/07 07:54:39;;;;;;;4.83;1.47;;;;;;;;;;5040650;28;20468;-84
2021/08/07 07:57:06;;;;;;;4.00;1.73;;;;;;;;;;5038808;28;20436;-83
2021/08/07 07:59:32;;;;;;;4.97;1.50;;;;;;;;;;5047318;28;20452;-83
2021/08/07 08:02:02;;;;;;;4.45;1.40;;;;;;;;;;5028898;28;20184;-83
2021/08/07 08:04:29;;;;;;;1.58;1.10;;;;;;;;;;5045239;28;20210;-83
2021/08/07 08:06:56;;;;;;;3.70;1.52;;;;;;;;;;5036399;28;20194;-84
2021/08/07 08:09:22;;;;;;;2.72;1.27;;;;;;;;;;5038889;28;20188;-83
2021/08/07 08:11:48;;;;;;;5.32;1.58;;;;;;;;;;5046383;28;20747;-84
2021/08/07 08:14:14;;;;;;;3.83;1.40;;;;;;;;;;5045908;28;20182;-83
2021/08/07 08:16:40;;;;;;;9.63;1.55;;;;;;;;;;5043769;28;20437;-83
2021/08/07 08:19:07;;;;;;;3.20;1.25;;;;;;;;;;5045020;28;20223;-83
2021/08/07 08:21:33;;;;;;;2.97;1.30;;;;;;;;;;5038863;28;20259;-83
2021/08/07 08:24:00;;;;;;;5.80;1.20;;;;;;;;;;5036554;28;20194;-84
2021/08/07 08:26:26;;;;;;;2.25;1.30;;;;;;;;;;5046151;28;20198;-83
2021/08/07 08:28:52;;;;;;;2.08;1.20;;;;;;;;;;5028349;28;20261;-84
2021/08/07 08:31:18;;;;;;;5.70;2.00;;;;;;;;;;5033957;28;20213;-83
2021/08/07 08:33:44;;;;;;;5.13;1.33;;;;;;;;;;5037321;28;20190;-83
2021/08/07 08:36:10;;;;;;;4.15;1.50;;;;;;;;;;5039174;28;20274;-84
2021/08/07 08:38:36;;;;;;;4.43;1.40;;;;;;;;;;5045165;28;20175;-84
2021/08/07 08:41:02;;;;;;;1.93;1.33;;;;;;;;;;5044204;28;20775;-83
2021/08/07 08:43:28;;;;;;;3.55;1.38;;;;;;;;;;5044707;28;20422;-83
2021/08/07 08:45:54;;;;;;;9.18;1.80;;;;;;;;;;5035456;28;20194;-84
2021/08/07 08:48:20;;;;;;;7.30;2.42;;;;;;;;;;5038719;28;20266;-86
2021/08/07 08:50:47;;;;;;;2.20;1.67;;;;;;;;;;5043479;28;20201;-85
2021/08/07 08:53:13;;;;;;;3.30;1.75;;;;;;;;;;5044499;28;20214;-87
2021/08/07 08:55:39;;;;;;;3.72;1.60;;;;;;;;;;5039737;28;20259;-87
2021/08/07 08:58:05;;;;;;;8.48;1.77;;;;;;;;;;5043067;28;20189;-88
2021/08/07 09:00:32;;;;;;;3.30;1.75;;;;;;;;;;5038932;28;20521;-87
2021/08/07 09:02:58;;;;;;;3.60;2.00;;;;;;;;;;5035892;28;20193;-88
2021/08/07 09:05:24;;;;;;;2.30;2.05;;;;;;;;;;5042272;28;20187;-88
2021/08/07 09:07:50;;;;;;;2.17;1.48;;;;;;;;;;5027308;28;20175;-88
2021/08/07 09:10:16;;;;;;;4.00;2.13;;;;;;;;;;5033001;28;20272;-86
2021/08/07 09:12:47;;;;;;;4.90;1.80;;;;;;;;;;5044550;28;20459;-87
2021/08/07 09:15:25;;;;;;;3.13;1.75;;;;;;;;;;5040301;28;20194;-86
2021/08/07 09:18:01;;;;;;;3.22;1.58;;;;;;;;;;5031681;28;20267;-87
2021/08/07 09:20:28;;;;;;;2.85;1.85;;;;;;;;;;5028796;28;20206;-88
2021/08/07 09:22:54;;;;;;;3.08;1.38;;;;;;;;;;5027011;28;20179;-87
2021/08/07 09:25:26;;;;;;;3.42;1.45;;;;;;;;;;5040969;28;20201;-87
2021/08/07 09:27:53;;;;;;;1.55;1.45;;;;;;;;;;5043655;28;20192;-86
2021/08/07 09:30:19;;;;;;;1.77;1.50;;;;;;;;;;5043005;28;20196;-87
2021/08/07 09:32:45;;;;;;;2.00;1.53;;;;;;;;;;5044196;28;20197;-85
2021/08/07 09:35:13;;;;;;;3.13;1.83;;;;;;;;;;5042457;28;20805;-86
2021/08/07 09:37:39;;;;;;;2.03;1.67;;;;;;;;;;5056022;28;20515;-87
2021/08/07 09:40:06;;;;;;;3.58;1.70;;;;;;;;;;5043175;28;20193;-86
2021/08/07 09:42:33;;;;;;;3.45;1.60;;;;;;;;;;5043590;28;20330;-86
2021/08/07 09:45:08;;;;;;;4.60;1.40;;;;;;;;;;5042105;28;20220;-86
2021/08/07 09:47:35;;;;;;;4.25;1.65;;;;;;;;;;5044733;28;20220;-85
2021/08/07 09:50:01;;;;;;;7.57;1.70;;;;;;;;;;5043644;28;20216;-84
2021/08/07 09:52:37;;;;;;;4.40;1.70;;;;;;;;;;5030515;28;20254;-86
2021/08/07 09:55:04;;;;;;;3.15;1.83;;;;;;;;;;5042858;28;20182;-86
2021/08/07 09:57:30;;;;;;;3.55;2.05;;;;;;;;;;5044204;28;20178;-86
2021/08/07 09:59:56;;;;;;;6.10;1.75;;;;;;;;;;5042143;28;20198;-87
2021/08/07 10:02:22;;;;;;;4.20;2.20;;;;;;;;;;5043833;28;20181;-87
2021/08/07 10:04:48;;;;;;;5.45;1.85;;;;;;;;;;5042319;28;20181;-86
2021/08/07 10:07:14;;;;;;;2.58;1.60;;;;;;;;;;5044503;28;20188;-86
2021/08/07 10:09:40;;;;;;;6.47;2.00;;;;;;;;;;5043149;28;20248;-86
2021/08/07 10:12:08;;;;;;;7.57;1.63;;;;;;;;;;5044024;28;20291;-85
2021/08/07 10:14:41;;;;;;;1.55;1.45;;;;;;;;;;5041860;28;20198;-86
2021/08/07 10:17:08;;;;;;;4.38;1.80;;;;;;;;;;5025985;28;20673;-84
2021/08/07 10:19:34;;;;;;;3.33;1.45;;;;;;;;;;5044299;28;20257;-86
2021/08/07 10:22:01;;;;;;;2.30;1.17;;;;;;;;;;5034395;28;20187;-85
2021/08/07 10:24:28;;;;;;;2.92;1.48;;;;;;;;;;5039620;28;20189;-84
2021/08/07 10:26:58;;;;;;;2.20;1.30;;;;;;;;;;5046085;28;20185;-84
2021/08/07 10:29:56;;;;;;;2.97;1.10;;;;;;;;;;5046013;28;20177;-85
2021/08/07 10:32:23;;;;;;;3.80;1.35;;;;;;;;;;5010004;28;20228;-84
2021/08/07 10:34:51;;;;;;;3.78;1.42;;;;;;;;;;5024913;28;20585;-84
2021/08/07 10:37:17;;;;;;;3.10;1.20;;;;;;;;;;5025964;28;20269;-84
2021/08/07 10:39:43;;;;;;;4.00;1.40;;;;;;;;;;5026504;28;20217;-85
2021/08/07 10:42:11;;;;;;;3.75;1.63;;;;;;;;;;5020916;28;20200;-86
2021/08/07 10:44:37;;;;;;;2.08;1.40;;;;;;;;;;4997276;28;20194;-85
2021/08/07 10:47:03;;;;;;;1.42;1.33;;;;;;;;;;5042304;28;20345;-85
2021/08/07 10:49:33;;;;;;;5.22;1.25;;;;;;;;;;5009632;28;20187;-86
2021/08/07 10:51:59;;;;;;;2.03;1.30;;;;;;;;;;5041126;28;20210;-86
2021/08/07 10:54:29;;;;;;;2.50;1.40;;;;;;;;;;5042945;28;20222;-85
2021/08/07 10:56:55;;;;;;;4.95;1.00;;;;;;;;;;5026232;28;20421;-86
2021/08/07 10:59:39;;;;;;;1.70;1.50;;;;;;;;;;4992985;28;20184;-87
2021/08/07 11:02:17;;;;;;;7.15;1.50;;;;;;;;;;5040638;28;20220;-85
2021/08/07 11:04:52;;;;;;;1.85;1.30;;;;;;;;;;5004796;28;20184;-87
2021/08/07 11:07:20;;;;;;;3.15;1.30;;;;;;;;;;5031339;28;20236;-86
2021/08/07 11:10:05;;;;;;;2.08;1.50;;;;;;;;;;5045338;28;20188;-86
2021/08/07 11:12:31;;;;;;;1.05;0.90;;;;;;;;;;5047118;28;20310;-87
2021/08/07 11:14:59;;;;;;;2.55;1.35;;;;;;;;;;5043949;28;20255;-85
2021/08/07 11:17:26;;;;;;;3.50;1.83;;;;;;;;;;5029949;28;20174;-87
2021/08/07 11:20:03;;;;;;;3.10;1.50;;;;;;;;;;5045379;28;20193;-87
2021/08/07 11:22:32;;;;;;;1.90;1.40;;;;;;;;;;5044911;28;20184;-85
2021/08/07 11:24:58;;;;;;;2.05;1.45;;;;;;;;;;5036471;28;20434;-87
2021/08/07 11:27:43;;;;;;;4.77;1.70;;;;;;;;;;5033681;28;20178;-86
2021/08/07 11:30:18;;;;;;;2.78;1.33;;;;;;;;;;5037613;28;20438;-85
2021/08/07 11:33:06;;;;;;;2.73;1.30;;;;;;;;;;5044956;28;20205;-86
2021/08/07 11:38:04;;;;;;;4.13;1.30;;;;;;;;;;5029460;28;20182;-86
2021/08/07 11:40:38;;;;;;;1.90;1.33;;;;;;;;;;5031274;28;20421;-86
2021/08/07 11:43:04;;;;;;;6.63;1.20;;;;;;;;;;5044093;28;20499;-86
2021/08/07 11:45:30;;;;;;;1.40;1.30;;;;;;;;;;5039380;28;20471;-85
2021/08/07 11:47:57;;;;;;;2.07;1.30;;;;;;;;;;5036365;28;20196;-81
2021/08/07 11:50:23;;;;;;;2.72;1.33;;;;;;;;;;5046486;28;20488;-83
2021/08/07 11:52:49;;;;;;;5.85;1.92;;;;;;;;;;5043401;28;20203;-84
2021/08/07 11:55:15;;;;;;;3.30;1.30;;;;;;;;;;5034254;28;20188;-85
2021/08/07 11:57:42;;;;;;;2.97;1.27;;;;;;;;;;5041698;28;20431;-85
2021/08/07 12:00:21;;;;;;;3.15;1.42;;;;;;;;;;5038130;28;20192;-85
2021/08/07 12:02:57;;;;;;;3.30;1.40;;;;;;;;;;5046823;28;20577;-85
2021/08/07 12:05:23;;;;;;;2.63;1.45;;;;;;;;;;5041288;28;20219;-84
2021/08/07 12:08:03;;;;;;;2.40;1.20;;;;;;;;;;5028514;28;20181;-85
2021/08/07 12:10:29;;;;;;;1.10;1.00;;;;;;;;;;5030668;28;20822;-84
2021/08/07 12:12:55;;;;;;;2.90;1.50;;;;;;;;;;5043563;28;20214;-84
2021/08/07 12:15:21;;;;;;;3.00;1.27;;;;;;;;;;5040141;28;20187;-84
2021/08/07 12:17:48;;;;;;;3.72;1.13;;;;;;;;;;5032860;28;20460;-84
2021/08/07 12:20:15;;;;;;;8.65;1.92;;;;;;;;;;5032068;28;20204;-84
2021/08/07 12:22:57;;;;;;;5.07;1.25;;;;;;;;;;5039262;28;20224;-83
2021/08/07 12:25:23;;;;;;;3.97;1.40;;;;;;;;;;5047630;28;20181;-85
2021/08/07 12:28:02;;;;;;;3.80;1.17;;;;;;;;;;5035242;28;20429;-84
2021/08/07 12:30:28;;;;;;;2.83;1.13;;;;;;;;;;5033889;28;20415;-85
2021/08/07 12:33:13;;;;;;;4.00;1.60;;;;;;;;;;5032784;28;20524;-84
2021/08/07 12:35:39;;;;;;;2.20;1.00;;;;;;;;;;5031712;28;20451;-84
2021/08/07 12:38:10;;;;;;;3.43;0.70;;;;;;;;;;5028676;28;20439;-86
2021/08/07 12:40:36;;;;;;;0.80;0.77;;;;;;;;;;5044578;28;20418;-83
2021/08/07 12:43:02;;;;;;;2.97;0.87;;;;;;;;;;5033825;28;20427;-83
2021/08/07 12:45:28;;;;;;;0.90;0.80;;;;;;;;;;5040346;28;20460;-85
2021/08/07 12:47:57;;;;;;;2.80;0.90;;;;;;;;;;5043498;28;20451;-85
2021/08/07 12:50:25;;;;;;;1.17;0.87;;;;;;;;;;5043671;28;20439;-85
2021/08/07 12:52:55;;;;;;;2.10;1.20;;;;;;;;;;5027004;28;20472;-85
2021/08/07 12:55:22;;;;;;;1.20;0.90;;;;;;;;;;5032745;28;20832;-85
2021/08/07 12:57:48;;;;;;;1.97;1.00;;;;;;;;;;5040760;28;20434;-84
2021/08/07 13:00:15;;;;;;;1.00;0.77;;;;;;;;;;5028668;28;20446;-85
2021/08/07 13:02:41;;;;;;;1.33;0.80;;;;;;;;;;5032026;28;20435;-84
2021/08/07 13:05:07;;;;;;;1.47;0.80;;;;;;;;;;5044863;28;20808;-85
2021/08/07 13:07:37;;;;;;;2.97;1.10;;;;;;;;;;5030310;28;20428;-84
2021/08/07 13:10:19;;;;;;;3.17;0.90;;;;;;;;;;5033388;28;20442;-84
2021/08/07 13:12:45;;;;;;;1.53;0.90;;;;;;;;;;5033603;28;20468;-83
2021/08/07 13:15:12;;;;;;;0.90;0.80;;;;;;;;;;5037037;28;20436;-83
2021/08/07 13:17:40;;;;;;;1.90;1.10;;;;;;;;;;5046801;28;20461;-83
2021/08/07 13:20:07;;;;;;;1.20;1.10;;;;;;;;;;5026479;28;20447;-82
2021/08/07 13:22:33;;;;;;;2.03;1.10;;;;;;;;;;5030061;28;20445;-82
2021/08/07 13:25:01;;;;;;;1.50;1.10;;;;;;;;;;5032691;28;20444;-81
2021/08/07 13:27:40;;;;;;;1.83;1.03;;;;;;;;;;5032018;28;20954;-83
2021/08/07 13:30:11;;;;;;;2.33;0.87;;;;;;;;;;5028334;28;20466;-83
2021/08/07 13:32:37;;;;;;;1.37;0.90;;;;;;;;;;5032136;28;21038;-83
2021/08/07 13:35:05;;;;;;;1.63;0.97;;;;;;;;;;5045116;28;20876;-83
2021/08/07 13:37:31;;;;;;;1.77;1.17;;;;;;;;;;5029516;28;20507;-83
2021/08/07 13:39:57;;;;;;;2.93;1.50;;;;;;;;;;5032140;28;20817;-84
2021/08/07 13:42:24;;;;;;;2.20;1.00;;;;;;;;;;5038698;28;20578;-83
2021/08/07 13:44:51;;;;;;;2.00;1.07;;;;;;;;;;5041744;28;20436;-83
2021/08/07 13:47:17;;;;;;;5.20;1.07;;;;;;;;;;5029006;28;20427;-83
2021/08/07 13:49:43;;;;;;;2.03;1.10;;;;;;;;;;5027407;28;20428;-83
2021/08/07 13:52:09;;;;;;;3.47;1.13;;;;;;;;;;5032963;28;20468;-83
2021/08/07 13:54:36;;;;;;;1.37;0.90;;;;;;;;;;5037943;28;20436;-83
2021/08/07 13:57:06;;;;;;;1.20;0.70;;;;;;;;;;5045378;28;20446;-81
2021/08/07 13:59:32;;;;;;;3.07;0.93;;;;;;;;;;5044164;28;20508;-82
2021/08/07 14:01:58;;;;;;;1.20;0.80;;;;;;;;;;5029341;28;20414;-82
2021/08/07 14:04:24;;;;;;;2.30;0.97;;;;;;;;;;5049217;28;20416;-81
2021/08/07 14:06:50;;;;;;;1.80;1.03;;;;;;;;;;5046558;28;20508;-83
2021/08/07 14:09:17;;;;;;;3.23;0.87;;;;;;;;;;5046340;28;20438;-80
2021/08/07 14:11:43;;;;;;;2.57;0.80;;;;;;;;;;5049488;28;20471;-81
2021/08/07 14:14:09;;;;;;;1.50;1.00;;;;;;;;;;5047364;28;20399;-81
2021/08/07 14:16:35;;;;;;;7.10;0.87;;;;;;;;;;5047018;28;20461;-80
2021/08/07 14:19:01;;;;;;;1.60;1.00;;;;;;;;;;5036349;28;20963;-82
2021/08/07 14:21:27;;;;;;;2.60;0.90;;;;;;;;;;5035975;28;20441;-81
2021/08/07 14:23:53;;;;;;;1.93;0.90;;;;;;;;;;5036827;28;20519;-81
2021/08/07 14:26:19;;;;;;;2.50;1.37;;;;;;;;;;5049170;28;20407;-81
2021/08/07 14:28:45;;;;;;;1.63;0.90;;;;;;;;;;5046677;28;20418;-81
2021/08/07 14:31:11;;;;;;;2.37;1.50;;;;;;;;;;5035764;28;20403;-81
2021/08/07 14:33:37;;;;;;;3.40;1.67;;;;;;;;;;5044149;28;20467;-83
2021/08/07 14:36:03;;;;;;;12.67;2.90;;;;;;;;;;5046087;28;20437;-84
2021/08/07 14:38:29;;;;;;;11.57;2.60;;;;;;;;;;5033741;28;20488;-82
2021/08/07 14:40:55;;;;;;;28.30;3.47;;;;;;;;;;5045937;28;20221;-83
2021/08/07 14:43:21;;;;;;;10.95;2.13;;;;;;;;;;5049064;28;20431;-84
2021/08/07 14:45:47;;;;;;;7.40;2.17;;;;;;;;;;5038842;28;20193;-84